sensor_id;sensor_type;location;lat;lon;timestamp;P1;durP1;ratioP1;P2;durP2;ratioP2
5393;SDS011;2720;52.396;10.064;2022-10-23T00:00:16;14.43;;;4.97;;
5393;SDS011;2720;52.396;10.064;2022-10-23T00:02:43;10.97;;;4.20;;
5393;SDS011;2720;52.396;10.064;2022-10-23T00:05:10;10.10;;;4.50;;
5393;SDS011;2720;52.396;10.064;2022-10-23T00:07:37;11.47;;;4.50;;
5393;SDS011;2720;52.396;10.064;2022-10-23T00:10:06;11.20;;;4.97;;
5393;SDS011;2720;52.396;10.064;2022-10-23T00:12:34;7.50;;;4.40;;
5393;SDS011;2720;52.396;10.064;2022-10-23T00:15:03;6.10;;;4.20;;
5393;SDS011;2720;52.396;10.064;2022-10-23T00:17:30;8.53;;;4.60;;
5393;SDS011;2720;52.396;10.064;2022-10-23T00:19:59;9.20;;;4.80;;
5393;SDS011;2720;52.396;10.064;2022-10-23T00:22:26;14.33;;;4.90;;
5393;SDS011;2720;52.396;10.064;2022-10-23T00:24:53;12.73;;;4.43;;
5393;SDS011;2720;52.396;10.064;2022-10-23T00:27:21;9.10;;;5.27;;
5393;SDS011;2720;52.396;10.064;2022-10-23T00:29:48;24.27;;;5.53;;
5393;SDS011;2720;52.396;10.064;2022-10-23T00:32:15;13.40;;;5.10;;
5393;SDS011;2720;52.396;10.064;2022-10-23T00:34:42;10.50;;;4.80;;
5393;SDS011;2720;52.396;10.064;2022-10-23T00:37:09;9.23;;;4.17;;
5393;SDS011;2720;52.396;10.064;2022-10-23T00:39:36;5.87;;;4.80;;
5393;SDS011;2720;52.396;10.064;2022-10-23T00:42:09;8.07;;;4.17;;
5393;SDS011;2720;52.396;10.064;2022-10-23T00:47:36;13.37;;;4.87;;
5393;SDS011;2720;52.396;10.064;2022-10-23T00:50:03;11.30;;;4.87;;
5393;SDS011;2720;52.396;10.064;2022-10-23T00:52:30;9.77;;;5.30;;
5393;SDS011;2720;52.396;10.064;2022-10-23T00:54:58;10.00;;;4.87;;
5393;SDS011;2720;52.396;10.064;2022-10-23T00:57:26;12.00;;;6.43;;
5393;SDS011;2720;52.396;10.064;2022-10-23T00:59:53;11.20;;;5.53;;
5393;SDS011;2720;52.396;10.064;2022-10-23T01:02:21;11.30;;;5.40;;
5393;SDS011;2720;52.396;10.064;2022-10-23T01:04:49;9.80;;;4.87;;
5393;SDS011;2720;52.396;10.064;2022-10-23T01:07:17;11.63;;;5.20;;
5393;SDS011;2720;52.396;10.064;2022-10-23T01:09:50;9.53;;;5.53;;
5393;SDS011;2720;52.396;10.064;2022-10-23T01:12:23;13.23;;;6.10;;
5393;SDS011;2720;52.396;10.064;2022-10-23T01:14:55;10.80;;;5.70;;
5393;SDS011;2720;52.396;10.064;2022-10-23T01:17:32;8.07;;;4.67;;
5393;SDS011;2720;52.396;10.064;2022-10-23T01:20:09;19.97;;;4.63;;
5393;SDS011;2720;52.396;10.064;2022-10-23T01:25:42;9.77;;;4.80;;
5393;SDS011;2720;52.396;10.064;2022-10-23T01:28:24;12.07;;;4.83;;
5393;SDS011;2720;52.396;10.064;2022-10-23T01:30:54;6.50;;;4.57;;
5393;SDS011;2720;52.396;10.064;2022-10-23T01:33:25;9.47;;;4.17;;
5393;SDS011;2720;52.396;10.064;2022-10-23T01:35:59;5.57;;;4.17;;
5393;SDS011;2720;52.396;10.064;2022-10-23T01:38:30;9.10;;;4.80;;
5393;SDS011;2720;52.396;10.064;2022-10-23T01:41:06;8.50;;;4.83;;
5393;SDS011;2720;52.396;10.064;2022-10-23T01:43:39;8.70;;;4.87;;
5393;SDS011;2720;52.396;10.064;2022-10-23T01:46:12;15.90;;;5.27;;
5393;SDS011;2720;52.396;10.064;2022-10-23T01:48:45;8.60;;;4.80;;
5393;SDS011;2720;52.396;10.064;2022-10-23T01:51:15;11.10;;;5.33;;
5393;SDS011;2720;52.396;10.064;2022-10-23T01:53:45;26.83;;;5.30;;
5393;SDS011;2720;52.396;10.064;2022-10-23T01:56:15;12.00;;;5.77;;
5393;SDS011;2720;52.396;10.064;2022-10-23T01:58:47;14.03;;;6.97;;
5393;SDS011;2720;52.396;10.064;2022-10-23T02:01:18;14.27;;;5.70;;
5393;SDS011;2720;52.396;10.064;2022-10-23T02:03:48;10.93;;;5.67;;
5393;SDS011;2720;52.396;10.064;2022-10-23T02:06:16;9.70;;;5.90;;
5393;SDS011;2720;52.396;10.064;2022-10-23T02:08:43;8.63;;;4.43;;
5393;SDS011;2720;52.396;10.064;2022-10-23T02:11:12;10.90;;;4.80;;
5393;SDS011;2720;52.396;10.064;2022-10-23T02:13:41;8.50;;;5.03;;
5393;SDS011;2720;52.396;10.064;2022-10-23T02:16:14;6.00;;;3.60;;
5393;SDS011;2720;52.396;10.064;2022-10-23T02:18:49;8.80;;;5.03;;
5393;SDS011;2720;52.396;10.064;2022-10-23T02:21:23;5.20;;;4.70;;
5393;SDS011;2720;52.396;10.064;2022-10-23T02:23:58;12.53;;;5.10;;
5393;SDS011;2720;52.396;10.064;2022-10-23T02:26:29;8.60;;;4.40;;
5393;SDS011;2720;52.396;10.064;2022-10-23T02:29:04;10.17;;;5.43;;
5393;SDS011;2720;52.396;10.064;2022-10-23T02:31:35;7.00;;;5.30;;
5393;SDS011;2720;52.396;10.064;2022-10-23T02:34:02;8.23;;;5.00;;
5393;SDS011;2720;52.396;10.064;2022-10-23T02:36:29;11.13;;;5.67;;
5393;SDS011;2720;52.396;10.064;2022-10-23T02:38:57;12.23;;;5.23;;
5393;SDS011;2720;52.396;10.064;2022-10-23T02:41:26;8.23;;;4.70;;
5393;SDS011;2720;52.396;10.064;2022-10-23T02:44:06;7.00;;;4.23;;
5393;SDS011;2720;52.396;10.064;2022-10-23T02:46:55;11.20;;;4.90;;
5393;SDS011;2720;52.396;10.064;2022-10-23T02:49:31;11.83;;;5.10;;
5393;SDS011;2720;52.396;10.064;2022-10-23T02:52:06;14.90;;;5.77;;
5393;SDS011;2720;52.396;10.064;2022-10-23T02:54:53;9.90;;;5.20;;
5393;SDS011;2720;52.396;10.064;2022-10-23T02:57:34;8.93;;;5.30;;
5393;SDS011;2720;52.396;10.064;2022-10-23T03:00:08;10.00;;;5.50;;
5393;SDS011;2720;52.396;10.064;2022-10-23T03:02:39;7.87;;;4.17;;
5393;SDS011;2720;52.396;10.064;2022-10-23T03:05:11;9.63;;;4.93;;
5393;SDS011;2720;52.396;10.064;2022-10-23T03:07:48;24.27;;;5.60;;
5393;SDS011;2720;52.396;10.064;2022-10-23T03:10:15;11.13;;;5.27;;
5393;SDS011;2720;52.396;10.064;2022-10-23T03:12:42;5.87;;;4.90;;
5393;SDS011;2720;52.396;10.064;2022-10-23T03:15:11;9.97;;;5.43;;
5393;SDS011;2720;52.396;10.064;2022-10-23T03:17:39;14.20;;;4.63;;
5393;SDS011;2720;52.396;10.064;2022-10-23T03:20:07;8.97;;;4.50;;
5393;SDS011;2720;52.396;10.064;2022-10-23T03:22:35;12.03;;;4.87;;
5393;SDS011;2720;52.396;10.064;2022-10-23T03:25:02;10.93;;;5.03;;
5393;SDS011;2720;52.396;10.064;2022-10-23T03:27:30;15.70;;;4.53;;
5393;SDS011;2720;52.396;10.064;2022-10-23T03:29:57;6.57;;;3.87;;
5393;SDS011;2720;52.396;10.064;2022-10-23T03:32:24;14.63;;;4.80;;
5393;SDS011;2720;52.396;10.064;2022-10-23T03:34:53;7.97;;;5.47;;
5393;SDS011;2720;52.396;10.064;2022-10-23T03:37:20;8.80;;;5.00;;
5393;SDS011;2720;52.396;10.064;2022-10-23T03:39:47;6.53;;;3.80;;
5393;SDS011;2720;52.396;10.064;2022-10-23T03:42:14;12.67;;;4.77;;
5393;SDS011;2720;52.396;10.064;2022-10-23T03:44:41;10.87;;;5.67;;
5393;SDS011;2720;52.396;10.064;2022-10-23T03:47:08;11.63;;;6.53;;
5393;SDS011;2720;52.396;10.064;2022-10-23T03:49:37;8.43;;;5.07;;
5393;SDS011;2720;52.396;10.064;2022-10-23T03:52:06;9.90;;;5.13;;
5393;SDS011;2720;52.396;10.064;2022-10-23T03:54:35;14.90;;;5.47;;
5393;SDS011;2720;52.396;10.064;2022-10-23T03:57:02;18.40;;;5.80;;
5393;SDS011;2720;52.396;10.064;2022-10-23T03:59:29;17.33;;;6.30;;
5393;SDS011;2720;52.396;10.064;2022-10-23T04:01:57;10.43;;;4.90;;
5393;SDS011;2720;52.396;10.064;2022-10-23T04:04:25;7.63;;;5.20;;
5393;SDS011;2720;52.396;10.064;2022-10-23T04:06:54;10.30;;;4.97;;
5393;SDS011;2720;52.396;10.064;2022-10-23T04:09:23;11.33;;;4.83;;
5393;SDS011;2720;52.396;10.064;2022-10-23T04:11:50;10.40;;;6.07;;
5393;SDS011;2720;52.396;10.064;2022-10-23T04:14:18;10.50;;;5.20;;
5393;SDS011;2720;52.396;10.064;2022-10-23T04:16:47;11.20;;;5.70;;
5393;SDS011;2720;52.396;10.064;2022-10-23T04:19:16;19.73;;;5.10;;
5393;SDS011;2720;52.396;10.064;2022-10-23T04:21:45;12.50;;;5.10;;
5393;SDS011;2720;52.396;10.064;2022-10-23T04:24:14;9.47;;;4.57;;
5393;SDS011;2720;52.396;10.064;2022-10-23T04:26:45;9.93;;;4.73;;
5393;SDS011;2720;52.396;10.064;2022-10-23T04:29:14;6.20;;;3.97;;
5393;SDS011;2720;52.396;10.064;2022-10-23T04:31:43;7.33;;;4.70;;
5393;SDS011;2720;52.396;10.064;2022-10-23T04:34:10;9.33;;;3.80;;
5393;SDS011;2720;52.396;10.064;2022-10-23T04:36:37;7.97;;;4.80;;
5393;SDS011;2720;52.396;10.064;2022-10-23T04:39:04;10.73;;;5.07;;
5393;SDS011;2720;52.396;10.064;2022-10-23T04:41:31;8.20;;;4.20;;
5393;SDS011;2720;52.396;10.064;2022-10-23T04:43:59;5.70;;;4.63;;
5393;SDS011;2720;52.396;10.064;2022-10-23T04:46:28;16.90;;;5.00;;
5393;SDS011;2720;52.396;10.064;2022-10-23T04:48:57;14.10;;;4.53;;
5393;SDS011;2720;52.396;10.064;2022-10-23T04:51:24;13.83;;;4.90;;
5393;SDS011;2720;52.396;10.064;2022-10-23T04:53:51;11.50;;;5.57;;
5393;SDS011;2720;52.396;10.064;2022-10-23T04:56:18;14.53;;;4.90;;
5393;SDS011;2720;52.396;10.064;2022-10-23T04:58:45;6.40;;;4.73;;
5393;SDS011;2720;52.396;10.064;2022-10-23T05:01:13;10.70;;;5.47;;
5393;SDS011;2720;52.396;10.064;2022-10-23T05:03:40;13.23;;;5.60;;
5393;SDS011;2720;52.396;10.064;2022-10-23T05:06:09;13.73;;;5.20;;
5393;SDS011;2720;52.396;10.064;2022-10-23T05:08:37;15.40;;;6.17;;
5393;SDS011;2720;52.396;10.064;2022-10-23T05:11:04;36.30;;;6.73;;
5393;SDS011;2720;52.396;10.064;2022-10-23T05:13:32;17.33;;;6.30;;
5393;SDS011;2720;52.396;10.064;2022-10-23T05:16:00;17.30;;;6.87;;
5393;SDS011;2720;52.396;10.064;2022-10-23T05:18:31;7.63;;;5.90;;
5393;SDS011;2720;52.396;10.064;2022-10-23T05:21:00;11.57;;;6.50;;
5393;SDS011;2720;52.396;10.064;2022-10-23T05:23:29;15.03;;;5.30;;
5393;SDS011;2720;52.396;10.064;2022-10-23T05:25:59;16.17;;;6.40;;
5393;SDS011;2720;52.396;10.064;2022-10-23T05:28:27;46.43;;;22.43;;
5393;SDS011;2720;52.396;10.064;2022-10-23T05:30:55;27.37;;;13.63;;
5393;SDS011;2720;52.396;10.064;2022-10-23T05:33:24;19.50;;;10.20;;
5393;SDS011;2720;52.396;10.064;2022-10-23T05:35:53;23.90;;;12.40;;
5393;SDS011;2720;52.396;10.064;2022-10-23T05:38:21;17.73;;;10.97;;
5393;SDS011;2720;52.396;10.064;2022-10-23T05:40:49;18.40;;;9.30;;
5393;SDS011;2720;52.396;10.064;2022-10-23T05:43:17;17.40;;;9.77;;
5393;SDS011;2720;52.396;10.064;2022-10-23T05:45:44;29.87;;;14.20;;
5393;SDS011;2720;52.396;10.064;2022-10-23T05:48:13;16.73;;;10.67;;
5393;SDS011;2720;52.396;10.064;2022-10-23T05:50:40;18.70;;;8.60;;
5393;SDS011;2720;52.396;10.064;2022-10-23T05:53:10;18.13;;;7.90;;
5393;SDS011;2720;52.396;10.064;2022-10-23T05:55:37;19.93;;;8.27;;
5393;SDS011;2720;52.396;10.064;2022-10-23T05:58:04;20.47;;;7.40;;
5393;SDS011;2720;52.396;10.064;2022-10-23T06:00:31;15.67;;;7.97;;
5393;SDS011;2720;52.396;10.064;2022-10-23T06:02:58;18.80;;;8.17;;
5393;SDS011;2720;52.396;10.064;2022-10-23T06:05:25;13.37;;;8.17;;
5393;SDS011;2720;52.396;10.064;2022-10-23T06:07:55;14.53;;;7.93;;
5393;SDS011;2720;52.396;10.064;2022-10-23T06:10:25;21.57;;;10.63;;
5393;SDS011;2720;52.396;10.064;2022-10-23T06:12:52;24.27;;;12.40;;
5393;SDS011;2720;52.396;10.064;2022-10-23T06:15:18;32.53;;;12.27;;
5393;SDS011;2720;52.396;10.064;2022-10-23T06:17:45;26.40;;;11.10;;
5393;SDS011;2720;52.396;10.064;2022-10-23T06:20:12;17.90;;;11.80;;
5393;SDS011;2720;52.396;10.064;2022-10-23T06:22:39;41.63;;;19.47;;
5393;SDS011;2720;52.396;10.064;2022-10-23T06:25:07;35.87;;;17.90;;
5393;SDS011;2720;52.396;10.064;2022-10-23T06:27:35;34.87;;;12.00;;
5393;SDS011;2720;52.396;10.064;2022-10-23T06:30:03;21.33;;;8.87;;
5393;SDS011;2720;52.396;10.064;2022-10-23T06:32:31;20.03;;;8.60;;
5393;SDS011;2720;52.396;10.064;2022-10-23T06:34:58;19.60;;;8.60;;
5393;SDS011;2720;52.396;10.064;2022-10-23T06:37:25;20.57;;;10.60;;
5393;SDS011;2720;52.396;10.064;2022-10-23T06:39:52;59.53;;;24.87;;
5393;SDS011;2720;52.396;10.064;2022-10-23T06:42:19;59.77;;;24.60;;
5393;SDS011;2720;52.396;10.064;2022-10-23T06:44:47;64.83;;;23.67;;
5393;SDS011;2720;52.396;10.064;2022-10-23T06:47:14;34.60;;;14.07;;
5393;SDS011;2720;52.396;10.064;2022-10-23T06:49:41;31.83;;;14.43;;
5393;SDS011;2720;52.396;10.064;2022-10-23T06:52:08;35.63;;;13.57;;
5393;SDS011;2720;52.396;10.064;2022-10-23T06:54:35;26.20;;;13.03;;
5393;SDS011;2720;52.396;10.064;2022-10-23T06:57:02;39.93;;;17.43;;
5393;SDS011;2720;52.396;10.064;2022-10-23T06:59:29;30.27;;;15.93;;
5393;SDS011;2720;52.396;10.064;2022-10-23T07:01:57;34.73;;;16.57;;
5393;SDS011;2720;52.396;10.064;2022-10-23T07:04:24;34.93;;;17.50;;
5393;SDS011;2720;52.396;10.064;2022-10-23T07:06:53;26.97;;;13.50;;
5393;SDS011;2720;52.396;10.064;2022-10-23T07:09:20;35.43;;;14.40;;
5393;SDS011;2720;52.396;10.064;2022-10-23T07:11:47;26.90;;;13.03;;
5393;SDS011;2720;52.396;10.064;2022-10-23T07:14:15;35.87;;;12.40;;
5393;SDS011;2720;52.396;10.064;2022-10-23T07:16:42;25.63;;;12.00;;
5393;SDS011;2720;52.396;10.064;2022-10-23T07:19:10;22.00;;;8.70;;
5393;SDS011;2720;52.396;10.064;2022-10-23T07:21:37;18.03;;;8.70;;
5393;SDS011;2720;52.396;10.064;2022-10-23T07:24:04;20.60;;;9.77;;
5393;SDS011;2720;52.396;10.064;2022-10-23T07:26:31;23.43;;;9.27;;
5393;SDS011;2720;52.396;10.064;2022-10-23T07:28:58;20.67;;;8.10;;
5393;SDS011;2720;52.396;10.064;2022-10-23T07:31:25;19.43;;;9.03;;
5393;SDS011;2720;52.396;10.064;2022-10-23T07:33:52;19.57;;;8.30;;
5393;SDS011;2720;52.396;10.064;2022-10-23T07:36:22;26.30;;;9.07;;
5393;SDS011;2720;52.396;10.064;2022-10-23T07:38:51;18.93;;;9.53;;
5393;SDS011;2720;52.396;10.064;2022-10-23T07:41:19;22.03;;;13.70;;
5393;SDS011;2720;52.396;10.064;2022-10-23T07:43:47;12.10;;;7.50;;
5393;SDS011;2720;52.396;10.064;2022-10-23T07:46:16;16.50;;;7.00;;
5393;SDS011;2720;52.396;10.064;2022-10-23T07:48:42;16.20;;;7.33;;
5393;SDS011;2720;52.396;10.064;2022-10-23T07:51:11;14.50;;;6.70;;
5393;SDS011;2720;52.396;10.064;2022-10-23T07:53:40;23.83;;;8.03;;
5393;SDS011;2720;52.396;10.064;2022-10-23T07:56:12;17.03;;;8.43;;
5393;SDS011;2720;52.396;10.064;2022-10-23T07:58:41;17.10;;;8.53;;
5393;SDS011;2720;52.396;10.064;2022-10-23T08:01:13;19.90;;;8.60;;
5393;SDS011;2720;52.396;10.064;2022-10-23T08:03:42;20.37;;;8.03;;
5393;SDS011;2720;52.396;10.064;2022-10-23T08:06:09;16.80;;;7.73;;
5393;SDS011;2720;52.396;10.064;2022-10-23T08:08:36;14.17;;;9.50;;
5393;SDS011;2720;52.396;10.064;2022-10-23T08:11:05;18.13;;;7.50;;
5393;SDS011;2720;52.396;10.064;2022-10-23T08:13:32;14.60;;;6.50;;
5393;SDS011;2720;52.396;10.064;2022-10-23T08:15:59;15.40;;;7.00;;
5393;SDS011;2720;52.396;10.064;2022-10-23T08:18:26;20.10;;;6.97;;
5393;SDS011;2720;52.396;10.064;2022-10-23T08:20:58;13.10;;;6.40;;
5393;SDS011;2720;52.396;10.064;2022-10-23T08:23:26;23.67;;;8.20;;
5393;SDS011;2720;52.396;10.064;2022-10-23T08:25:55;15.20;;;6.80;;
5393;SDS011;2720;52.396;10.064;2022-10-23T08:28:25;17.10;;;6.43;;
5393;SDS011;2720;52.396;10.064;2022-10-23T08:30:53;18.73;;;6.53;;
5393;SDS011;2720;52.396;10.064;2022-10-23T08:33:21;13.97;;;5.43;;
5393;SDS011;2720;52.396;10.064;2022-10-23T08:35:48;13.33;;;6.80;;
5393;SDS011;2720;52.396;10.064;2022-10-23T08:38:16;14.90;;;4.87;;
5393;SDS011;2720;52.396;10.064;2022-10-23T08:40:44;9.00;;;5.10;;
5393;SDS011;2720;52.396;10.064;2022-10-23T08:43:13;15.60;;;5.47;;
5393;SDS011;2720;52.396;10.064;2022-10-23T08:45:46;9.10;;;5.30;;
5393;SDS011;2720;52.396;10.064;2022-10-23T08:48:17;9.63;;;5.07;;
5393;SDS011;2720;52.396;10.064;2022-10-23T08:50:49;7.90;;;4.20;;
5393;SDS011;2720;52.396;10.064;2022-10-23T08:53:21;25.23;;;5.17;;
5393;SDS011;2720;52.396;10.064;2022-10-23T08:55:52;15.63;;;5.00;;
5393;SDS011;2720;52.396;10.064;2022-10-23T08:58:23;11.57;;;5.10;;
5393;SDS011;2720;52.396;10.064;2022-10-23T09:00:57;15.33;;;5.37;;
5393;SDS011;2720;52.396;10.064;2022-10-23T09:03:24;10.70;;;4.63;;
5393;SDS011;2720;52.396;10.064;2022-10-23T09:05:56;16.50;;;5.40;;
5393;SDS011;2720;52.396;10.064;2022-10-23T09:08:33;14.93;;;6.40;;
5393;SDS011;2720;52.396;10.064;2022-10-23T09:11:08;14.37;;;6.13;;
5393;SDS011;2720;52.396;10.064;2022-10-23T09:13:49;17.97;;;5.70;;
5393;SDS011;2720;52.396;10.064;2022-10-23T09:16:32;13.33;;;5.20;;
5393;SDS011;2720;52.396;10.064;2022-10-23T09:19:10;17.67;;;6.67;;
5393;SDS011;2720;52.396;10.064;2022-10-23T09:21:39;15.20;;;6.23;;
5393;SDS011;2720;52.396;10.064;2022-10-23T09:24:09;13.70;;;5.80;;
5393;SDS011;2720;52.396;10.064;2022-10-23T09:26:38;15.17;;;6.67;;
5393;SDS011;2720;52.396;10.064;2022-10-23T09:29:13;12.57;;;6.53;;
5393;SDS011;2720;52.396;10.064;2022-10-23T09:31:49;12.03;;;5.70;;
5393;SDS011;2720;52.396;10.064;2022-10-23T09:34:19;18.07;;;5.40;;
5393;SDS011;2720;52.396;10.064;2022-10-23T09:36:51;17.10;;;5.43;;
5393;SDS011;2720;52.396;10.064;2022-10-23T09:39:20;11.63;;;5.00;;
5393;SDS011;2720;52.396;10.064;2022-10-23T09:41:50;19.77;;;5.87;;
5393;SDS011;2720;52.396;10.064;2022-10-23T09:44:18;12.33;;;6.30;;
5393;SDS011;2720;52.396;10.064;2022-10-23T09:46:49;12.17;;;5.17;;
5393;SDS011;2720;52.396;10.064;2022-10-23T09:49:19;14.20;;;4.60;;
5393;SDS011;2720;52.396;10.064;2022-10-23T09:51:52;11.53;;;5.00;;
5393;SDS011;2720;52.396;10.064;2022-10-23T09:54:21;14.37;;;4.83;;
5393;SDS011;2720;52.396;10.064;2022-10-23T09:56:49;14.93;;;5.07;;
5393;SDS011;2720;52.396;10.064;2022-10-23T09:59:19;11.23;;;4.80;;
5393;SDS011;2720;52.396;10.064;2022-10-23T10:01:50;9.53;;;4.43;;
5393;SDS011;2720;52.396;10.064;2022-10-23T10:04:29;7.87;;;4.17;;
5393;SDS011;2720;52.396;10.064;2022-10-23T10:06:58;16.33;;;4.90;;
5393;SDS011;2720;52.396;10.064;2022-10-23T10:09:27;15.43;;;5.17;;
5393;SDS011;2720;52.396;10.064;2022-10-23T10:11:56;17.60;;;5.60;;
5393;SDS011;2720;52.396;10.064;2022-10-23T10:17:15;9.97;;;5.00;;
5393;SDS011;2720;52.396;10.064;2022-10-23T10:19:50;14.43;;;5.30;;
5393;SDS011;2720;52.396;10.064;2022-10-23T10:22:25;11.63;;;4.50;;
5393;SDS011;2720;52.396;10.064;2022-10-23T10:24:56;14.17;;;4.57;;
5393;SDS011;2720;52.396;10.064;2022-10-23T10:27:30;13.83;;;5.47;;
5393;SDS011;2720;52.396;10.064;2022-10-23T10:30:03;10.07;;;4.40;;
5393;SDS011;2720;52.396;10.064;2022-10-23T10:32:37;14.23;;;4.63;;
5393;SDS011;2720;52.396;10.064;2022-10-23T10:35:16;12.97;;;4.50;;
5393;SDS011;2720;52.396;10.064;2022-10-23T10:37:49;13.20;;;5.13;;
5393;SDS011;2720;52.396;10.064;2022-10-23T10:40:23;10.43;;;4.40;;
5393;SDS011;2720;52.396;10.064;2022-10-23T10:42:55;14.10;;;4.43;;
5393;SDS011;2720;52.396;10.064;2022-10-23T10:45:32;11.10;;;4.00;;
5393;SDS011;2720;52.396;10.064;2022-10-23T10:48:13;12.63;;;4.60;;
5393;SDS011;2720;52.396;10.064;2022-10-23T10:50:45;15.53;;;4.10;;
5393;SDS011;2720;52.396;10.064;2022-10-23T10:53:17;18.73;;;4.10;;
5393;SDS011;2720;52.396;10.064;2022-10-23T10:55:47;12.10;;;3.23;;
5393;SDS011;2720;52.396;10.064;2022-10-23T10:58:17;9.33;;;4.07;;
5393;SDS011;2720;52.396;10.064;2022-10-23T11:00:48;20.50;;;6.00;;
5393;SDS011;2720;52.396;10.064;2022-10-23T11:03:23;9.17;;;4.40;;
5393;SDS011;2720;52.396;10.064;2022-10-23T11:05:52;19.67;;;4.13;;
5393;SDS011;2720;52.396;10.064;2022-10-23T11:08:22;9.27;;;3.17;;
5393;SDS011;2720;52.396;10.064;2022-10-23T11:10:53;13.30;;;3.70;;
5393;SDS011;2720;52.396;10.064;2022-10-23T11:13:24;5.47;;;2.37;;
5393;SDS011;2720;52.396;10.064;2022-10-23T11:15:53;11.27;;;3.13;;
5393;SDS011;2720;52.396;10.064;2022-10-23T11:18:27;8.10;;;2.73;;
5393;SDS011;2720;52.396;10.064;2022-10-23T11:21:02;10.03;;;2.90;;
5393;SDS011;2720;52.396;10.064;2022-10-23T11:23:42;9.10;;;3.40;;
5393;SDS011;2720;52.396;10.064;2022-10-23T11:26:31;12.10;;;2.63;;
5393;SDS011;2720;52.396;10.064;2022-10-23T11:32:13;11.60;;;2.80;;
5393;SDS011;2720;52.396;10.064;2022-10-23T11:35:04;6.13;;;2.60;;
5393;SDS011;2720;52.396;10.064;2022-10-23T11:37:40;4.60;;;2.17;;
5393;SDS011;2720;52.396;10.064;2022-10-23T11:40:17;4.50;;;2.37;;
5393;SDS011;2720;52.396;10.064;2022-10-23T11:42:49;7.80;;;2.50;;
5393;SDS011;2720;52.396;10.064;2022-10-23T11:45:30;15.83;;;2.87;;
5393;SDS011;2720;52.396;10.064;2022-10-23T11:48:00;12.43;;;2.43;;
5393;SDS011;2720;52.396;10.064;2022-10-23T11:50:30;8.17;;;2.30;;
5393;SDS011;2720;52.396;10.064;2022-10-23T11:53:00;8.43;;;2.47;;
5393;SDS011;2720;52.396;10.064;2022-10-23T11:55:34;8.73;;;2.57;;
5393;SDS011;2720;52.396;10.064;2022-10-23T11:58:12;9.80;;;2.57;;
5393;SDS011;2720;52.396;10.064;2022-10-23T12:00:58;8.30;;;2.30;;
5393;SDS011;2720;52.396;10.064;2022-10-23T12:03:31;4.50;;;1.87;;
5393;SDS011;2720;52.396;10.064;2022-10-23T12:06:13;5.07;;;2.10;;
5393;SDS011;2720;52.396;10.064;2022-10-23T12:08:49;3.00;;;1.70;;
5393;SDS011;2720;52.396;10.064;2022-10-23T12:11:23;5.50;;;1.97;;
5393;SDS011;2720;52.396;10.064;2022-10-23T12:13:52;6.50;;;1.80;;
5393;SDS011;2720;52.396;10.064;2022-10-23T12:16:19;5.23;;;2.40;;
5393;SDS011;2720;52.396;10.064;2022-10-23T12:18:47;6.83;;;2.30;;
5393;SDS011;2720;52.396;10.064;2022-10-23T12:21:19;10.40;;;2.70;;
5393;SDS011;2720;52.396;10.064;2022-10-23T12:26:54;11.97;;;2.50;;
5393;SDS011;2720;52.396;10.064;2022-10-23T12:29:35;5.97;;;2.33;;
5393;SDS011;2720;52.396;10.064;2022-10-23T12:32:16;4.30;;;2.00;;
5393;SDS011;2720;52.396;10.064;2022-10-23T12:35:07;7.33;;;2.10;;
5393;SDS011;2720;52.396;10.064;2022-10-23T12:37:50;4.60;;;1.90;;
5393;SDS011;2720;52.396;10.064;2022-10-23T12:40:26;5.00;;;2.17;;
5393;SDS011;2720;52.396;10.064;2022-10-23T12:42:55;6.30;;;2.03;;
5393;SDS011;2720;52.396;10.064;2022-10-23T12:45:25;4.23;;;2.30;;
5393;SDS011;2720;52.396;10.064;2022-10-23T12:47:54;6.13;;;2.40;;
5393;SDS011;2720;52.396;10.064;2022-10-23T12:50:22;10.30;;;2.60;;
5393;SDS011;2720;52.396;10.064;2022-10-23T12:52:53;3.73;;;1.77;;
5393;SDS011;2720;52.396;10.064;2022-10-23T12:55:21;4.13;;;1.93;;
5393;SDS011;2720;52.396;10.064;2022-10-23T12:57:49;9.33;;;2.50;;
5393;SDS011;2720;52.396;10.064;2022-10-23T13:00:18;5.47;;;1.77;;
5393;SDS011;2720;52.396;10.064;2022-10-23T13:02:56;7.80;;;2.40;;
5393;SDS011;2720;52.396;10.064;2022-10-23T13:05:23;6.73;;;2.33;;
5393;SDS011;2720;52.396;10.064;2022-10-23T13:07:52;8.37;;;2.00;;
5393;SDS011;2720;52.396;10.064;2022-10-23T13:10:20;8.33;;;1.70;;
5393;SDS011;2720;52.396;10.064;2022-10-23T13:12:51;12.30;;;2.23;;
5393;SDS011;2720;52.396;10.064;2022-10-23T13:15:20;8.40;;;1.80;;
5393;SDS011;2720;52.396;10.064;2022-10-23T13:17:58;5.00;;;2.50;;
5393;SDS011;2720;52.396;10.064;2022-10-23T13:20:26;4.30;;;1.50;;
5393;SDS011;2720;52.396;10.064;2022-10-23T13:23:00;6.20;;;2.07;;
5393;SDS011;2720;52.396;10.064;2022-10-23T13:25:35;18.63;;;2.53;;
5393;SDS011;2720;52.396;10.064;2022-10-23T13:28:09;9.57;;;2.00;;
5393;SDS011;2720;52.396;10.064;2022-10-23T13:30:40;8.80;;;2.63;;
5393;SDS011;2720;52.396;10.064;2022-10-23T13:33:14;6.53;;;2.40;;
5393;SDS011;2720;52.396;10.064;2022-10-23T13:35:53;3.50;;;2.17;;
5393;SDS011;2720;52.396;10.064;2022-10-23T13:38:28;7.47;;;2.67;;
5393;SDS011;2720;52.396;10.064;2022-10-23T13:40:56;8.20;;;2.20;;
5393;SDS011;2720;52.396;10.064;2022-10-23T13:43:24;7.53;;;2.13;;
5393;SDS011;2720;52.396;10.064;2022-10-23T13:45:53;21.33;;;3.70;;
5393;SDS011;2720;52.396;10.064;2022-10-23T13:48:20;6.00;;;1.90;;
5393;SDS011;2720;52.396;10.064;2022-10-23T13:50:47;3.57;;;2.10;;
5393;SDS011;2720;52.396;10.064;2022-10-23T13:53:14;3.97;;;1.77;;
5393;SDS011;2720;52.396;10.064;2022-10-23T13:55:43;9.63;;;2.87;;
5393;SDS011;2720;52.396;10.064;2022-10-23T13:58:12;3.00;;;2.00;;
5393;SDS011;2720;52.396;10.064;2022-10-23T14:00:39;4.27;;;2.23;;
5393;SDS011;2720;52.396;10.064;2022-10-23T14:03:07;9.13;;;2.57;;
5393;SDS011;2720;52.396;10.064;2022-10-23T14:05:35;2.70;;;2.10;;
5393;SDS011;2720;52.396;10.064;2022-10-23T14:08:02;9.33;;;3.63;;
5393;SDS011;2720;52.396;10.064;2022-10-23T14:10:29;20.10;;;4.80;;
5393;SDS011;2720;52.396;10.064;2022-10-23T14:12:57;13.30;;;5.40;;
5393;SDS011;2720;52.396;10.064;2022-10-23T14:15:24;12.17;;;5.60;;
5393;SDS011;2720;52.396;10.064;2022-10-23T14:17:51;8.60;;;3.40;;
5393;SDS011;2720;52.396;10.064;2022-10-23T14:20:18;7.90;;;3.03;;
5393;SDS011;2720;52.396;10.064;2022-10-23T14:22:45;9.50;;;4.40;;
5393;SDS011;2720;52.396;10.064;2022-10-23T14:25:12;5.63;;;3.70;;
5393;SDS011;2720;52.396;10.064;2022-10-23T14:27:43;9.60;;;4.70;;
5393;SDS011;2720;52.396;10.064;2022-10-23T14:30:15;7.03;;;3.73;;
5393;SDS011;2720;52.396;10.064;2022-10-23T14:32:42;4.53;;;2.80;;
5393;SDS011;2720;52.396;10.064;2022-10-23T14:35:10;4.63;;;2.63;;
5393;SDS011;2720;52.396;10.064;2022-10-23T14:37:37;6.83;;;3.07;;
5393;SDS011;2720;52.396;10.064;2022-10-23T14:40:05;7.40;;;2.77;;
5393;SDS011;2720;52.396;10.064;2022-10-23T14:42:33;7.50;;;2.83;;
5393;SDS011;2720;52.396;10.064;2022-10-23T14:45:01;12.30;;;2.17;;
5393;SDS011;2720;52.396;10.064;2022-10-23T14:47:29;23.90;;;4.17;;
5393;SDS011;2720;52.396;10.064;2022-10-23T14:49:57;7.97;;;2.23;;
5393;SDS011;2720;52.396;10.064;2022-10-23T14:52:24;5.13;;;2.03;;
5393;SDS011;2720;52.396;10.064;2022-10-23T14:54:51;6.20;;;3.10;;
5393;SDS011;2720;52.396;10.064;2022-10-23T14:57:18;19.37;;;8.10;;
5393;SDS011;2720;52.396;10.064;2022-10-23T14:59:46;27.10;;;13.97;;
5393;SDS011;2720;52.396;10.064;2022-10-23T15:02:13;12.93;;;7.10;;
5393;SDS011;2720;52.396;10.064;2022-10-23T15:04:42;12.40;;;7.57;;
5393;SDS011;2720;52.396;10.064;2022-10-23T15:07:10;5.33;;;3.03;;
5393;SDS011;2720;52.396;10.064;2022-10-23T15:09:37;4.87;;;2.47;;
5393;SDS011;2720;52.396;10.064;2022-10-23T15:12:04;4.33;;;2.53;;
5393;SDS011;2720;52.396;10.064;2022-10-23T15:14:32;8.03;;;4.60;;
5393;SDS011;2720;52.396;10.064;2022-10-23T15:17:00;5.47;;;3.30;;
5393;SDS011;2720;52.396;10.064;2022-10-23T15:19:28;4.37;;;2.30;;
5393;SDS011;2720;52.396;10.064;2022-10-23T15:21:56;5.90;;;3.60;;
5393;SDS011;2720;52.396;10.064;2022-10-23T15:24:23;6.53;;;3.93;;